sensor_id;sensor_type;location;lat;lon;timestamp;P1;durP1;ratioP1;P2;durP2;ratioP2
15254;SDS011;7730;49.610;11.136;2022-09-02T00:00:40;2.60;;;1.60;;
15254;SDS011;7730;49.610;11.136;2022-09-02T00:03:07;3.30;;;1.45;;
15254;SDS011;7730;49.610;11.136;2022-09-02T00:05:34;3.35;;;1.50;;
15254;SDS011;7730;49.610;11.136;2022-09-02T00:08:01;3.15;;;1.58;;
15254;SDS011;7730;49.610;11.136;2022-09-02T00:10:28;3.85;;;1.50;;
15254;SDS011;7730;49.610;11.136;2022-09-02T00:12:55;3.88;;;1.50;;
15254;SDS011;7730;49.610;11.136;2022-09-02T00:15:24;6.07;;;1.70;;
15254;SDS011;7730;49.610;11.136;2022-09-02T00:17:51;4.55;;;1.60;;
15254;SDS011;7730;49.610;11.136;2022-09-02T00:20:18;4.20;;;1.55;;
15254;SDS011;7730;49.610;11.136;2022-09-02T00:22:45;2.78;;;1.50;;
15254;SDS011;7730;49.610;11.136;2022-09-02T00:25:12;2.60;;;1.58;;
15254;SDS011;7730;49.610;11.136;2022-09-02T00:27:39;3.88;;;1.63;;
15254;SDS011;7730;49.610;11.136;2022-09-02T00:30:07;3.17;;;1.40;;
15254;SDS011;7730;49.610;11.136;2022-09-02T00:32:35;3.42;;;1.50;;
15254;SDS011;7730;49.610;11.136;2022-09-02T00:35:02;2.00;;;1.35;;
15254;SDS011;7730;49.610;11.136;2022-09-02T00:37:30;2.50;;;1.50;;
15254;SDS011;7730;49.610;11.136;2022-09-02T00:39:57;3.58;;;1.58;;
15254;SDS011;7730;49.610;11.136;2022-09-02T00:42:24;2.08;;;1.40;;
15254;SDS011;7730;49.610;11.136;2022-09-02T00:44:52;3.35;;;1.50;;
15254;SDS011;7730;49.610;11.136;2022-09-02T00:47:19;4.28;;;1.70;;
15254;SDS011;7730;49.610;11.136;2022-09-02T00:49:49;3.58;;;1.65;;
15254;SDS011;7730;49.610;11.136;2022-09-02T00:52:18;4.68;;;1.52;;
15254;SDS011;7730;49.610;11.136;2022-09-02T00:54:49;3.85;;;1.73;;
15254;SDS011;7730;49.610;11.136;2022-09-02T00:57:17;3.83;;;1.70;;
15254;SDS011;7730;49.610;11.136;2022-09-02T00:59:47;2.67;;;1.50;;
15254;SDS011;7730;49.610;11.136;2022-09-02T01:02:16;2.65;;;1.48;;
15254;SDS011;7730;49.610;11.136;2022-09-02T01:04:49;3.78;;;1.73;;
15254;SDS011;7730;49.610;11.136;2022-09-02T01:07:17;4.78;;;1.80;;
15254;SDS011;7730;49.610;11.136;2022-09-02T01:09:46;3.58;;;1.50;;
15254;SDS011;7730;49.610;11.136;2022-09-02T01:12:14;3.22;;;1.40;;
15254;SDS011;7730;49.610;11.136;2022-09-02T01:14:41;4.15;;;1.60;;
15254;SDS011;7730;49.610;11.136;2022-09-02T01:17:08;4.95;;;1.58;;
15254;SDS011;7730;49.610;11.136;2022-09-02T01:19:37;3.92;;;1.50;;
15254;SDS011;7730;49.610;11.136;2022-09-02T01:22:15;5.53;;;1.73;;
15254;SDS011;7730;49.610;11.136;2022-09-02T01:24:42;4.60;;;1.60;;
15254;SDS011;7730;49.610;11.136;2022-09-02T01:27:09;3.10;;;1.60;;
15254;SDS011;7730;49.610;11.136;2022-09-02T01:29:39;3.90;;;1.60;;
15254;SDS011;7730;49.610;11.136;2022-09-02T01:32:06;2.67;;;1.60;;
15254;SDS011;7730;49.610;11.136;2022-09-02T01:34:33;3.95;;;1.42;;
15254;SDS011;7730;49.610;11.136;2022-09-02T01:37:00;4.15;;;1.60;;
15254;SDS011;7730;49.610;11.136;2022-09-02T01:39:29;4.18;;;1.63;;
15254;SDS011;7730;49.610;11.136;2022-09-02T01:41:56;3.25;;;1.60;;
15254;SDS011;7730;49.610;11.136;2022-09-02T01:44:24;1.90;;;1.50;;
15254;SDS011;7730;49.610;11.136;2022-09-02T01:46:52;5.38;;;1.67;;
15254;SDS011;7730;49.610;11.136;2022-09-02T01:49:19;6.70;;;1.70;;
15254;SDS011;7730;49.610;11.136;2022-09-02T01:51:46;2.88;;;1.55;;
15254;SDS011;7730;49.610;11.136;2022-09-02T01:54:14;3.30;;;1.65;;
15254;SDS011;7730;49.610;11.136;2022-09-02T01:56:42;1.70;;;1.30;;
15254;SDS011;7730;49.610;11.136;2022-09-02T01:59:09;3.05;;;1.50;;
15254;SDS011;7730;49.610;11.136;2022-09-02T02:01:41;4.70;;;1.55;;
15254;SDS011;7730;49.610;11.136;2022-09-02T02:04:08;3.75;;;1.58;;
15254;SDS011;7730;49.610;11.136;2022-09-02T02:06:38;3.35;;;1.40;;
15254;SDS011;7730;49.610;11.136;2022-09-02T02:09:06;3.78;;;1.58;;
15254;SDS011;7730;49.610;11.136;2022-09-02T02:11:33;3.58;;;1.58;;
15254;SDS011;7730;49.610;11.136;2022-09-02T02:14:02;4.30;;;1.60;;
15254;SDS011;7730;49.610;11.136;2022-09-02T02:16:29;4.57;;;1.70;;
15254;SDS011;7730;49.610;11.136;2022-09-02T02:18:56;2.70;;;1.50;;
15254;SDS011;7730;49.610;11.136;2022-09-02T02:21:23;2.95;;;1.50;;
15254;SDS011;7730;49.610;11.136;2022-09-02T02:23:50;4.30;;;1.42;;
15254;SDS011;7730;49.610;11.136;2022-09-02T02:26:17;4.38;;;1.60;;
15254;SDS011;7730;49.610;11.136;2022-09-02T02:28:44;2.42;;;1.45;;
15254;SDS011;7730;49.610;11.136;2022-09-02T02:31:13;2.75;;;1.40;;
15254;SDS011;7730;49.610;11.136;2022-09-02T02:33:40;3.30;;;1.60;;
15254;SDS011;7730;49.610;11.136;2022-09-02T02:36:07;4.93;;;1.40;;
15254;SDS011;7730;49.610;11.136;2022-09-02T02:38:34;2.28;;;1.50;;
15254;SDS011;7730;49.610;11.136;2022-09-02T02:41:02;3.80;;;1.60;;
15254;SDS011;7730;49.610;11.136;2022-09-02T02:43:30;2.60;;;1.65;;
15254;SDS011;7730;49.610;11.136;2022-09-02T02:45:57;5.05;;;1.60;;
15254;SDS011;7730;49.610;11.136;2022-09-02T02:48:25;5.70;;;1.70;;
15254;SDS011;7730;49.610;11.136;2022-09-02T02:50:53;8.00;;;1.85;;
15254;SDS011;7730;49.610;11.136;2022-09-02T02:53:20;6.60;;;1.90;;
15254;SDS011;7730;49.610;11.136;2022-09-02T02:55:47;10.20;;;1.80;;
15254;SDS011;7730;49.610;11.136;2022-09-02T02:58:14;4.78;;;1.55;;
15254;SDS011;7730;49.610;11.136;2022-09-02T03:00:41;3.35;;;1.70;;
15254;SDS011;7730;49.610;11.136;2022-09-02T03:03:10;5.25;;;1.92;;
15254;SDS011;7730;49.610;11.136;2022-09-02T03:05:38;4.63;;;1.70;;
15254;SDS011;7730;49.610;11.136;2022-09-02T03:08:06;3.55;;;1.40;;
15254;SDS011;7730;49.610;11.136;2022-09-02T03:10:34;5.13;;;1.70;;
15254;SDS011;7730;49.610;11.136;2022-09-02T03:13:02;3.55;;;1.65;;
15254;SDS011;7730;49.610;11.136;2022-09-02T03:15:29;3.53;;;1.50;;
15254;SDS011;7730;49.610;11.136;2022-09-02T03:17:57;5.03;;;1.45;;
15254;SDS011;7730;49.610;11.136;2022-09-02T03:20:24;2.55;;;1.38;;
15254;SDS011;7730;49.610;11.136;2022-09-02T03:22:53;3.28;;;1.58;;
15254;SDS011;7730;49.610;11.136;2022-09-02T03:25:20;2.90;;;1.40;;
15254;SDS011;7730;49.610;11.136;2022-09-02T03:27:48;3.47;;;1.60;;
15254;SDS011;7730;49.610;11.136;2022-09-02T03:30:17;4.70;;;1.73;;
15254;SDS011;7730;49.610;11.136;2022-09-02T03:32:45;2.90;;;1.60;;
15254;SDS011;7730;49.610;11.136;2022-09-02T03:35:13;2.20;;;1.50;;
15254;SDS011;7730;49.610;11.136;2022-09-02T03:37:41;4.25;;;1.60;;
15254;SDS011;7730;49.610;11.136;2022-09-02T03:40:11;4.05;;;1.70;;
15254;SDS011;7730;49.610;11.136;2022-09-02T03:42:38;3.38;;;1.65;;
15254;SDS011;7730;49.610;11.136;2022-09-02T03:45:06;3.17;;;1.60;;
15254;SDS011;7730;49.610;11.136;2022-09-02T03:47:34;3.97;;;1.70;;
15254;SDS011;7730;49.610;11.136;2022-09-02T03:50:04;4.60;;;1.60;;
15254;SDS011;7730;49.610;11.136;2022-09-02T03:52:32;3.33;;;1.80;;
15254;SDS011;7730;49.610;11.136;2022-09-02T03:54:59;2.42;;;1.63;;
15254;SDS011;7730;49.610;11.136;2022-09-02T03:57:27;4.57;;;1.70;;
15254;SDS011;7730;49.610;11.136;2022-09-02T03:59:54;4.35;;;1.63;;
15254;SDS011;7730;49.610;11.136;2022-09-02T04:02:21;3.72;;;1.60;;
15254;SDS011;7730;49.610;11.136;2022-09-02T04:04:48;3.17;;;1.70;;
15254;SDS011;7730;49.610;11.136;2022-09-02T04:07:15;7.63;;;2.03;;
15254;SDS011;7730;49.610;11.136;2022-09-02T04:09:42;4.18;;;1.80;;
15254;SDS011;7730;49.610;11.136;2022-09-02T04:12:10;5.55;;;1.60;;
15254;SDS011;7730;49.610;11.136;2022-09-02T04:14:38;4.45;;;1.70;;
15254;SDS011;7730;49.610;11.136;2022-09-02T04:17:06;4.95;;;1.60;;
15254;SDS011;7730;49.610;11.136;2022-09-02T04:19:33;5.28;;;1.85;;
15254;SDS011;7730;49.610;11.136;2022-09-02T04:22:01;8.43;;;2.05;;
15254;SDS011;7730;49.610;11.136;2022-09-02T04:24:28;4.88;;;2.00;;
15254;SDS011;7730;49.610;11.136;2022-09-02T04:26:55;5.65;;;1.90;;
15254;SDS011;7730;49.610;11.136;2022-09-02T04:29:22;7.47;;;2.00;;
15254;SDS011;7730;49.610;11.136;2022-09-02T04:31:52;7.88;;;2.00;;
15254;SDS011;7730;49.610;11.136;2022-09-02T04:34:19;7.88;;;1.80;;
15254;SDS011;7730;49.610;11.136;2022-09-02T04:36:46;3.10;;;1.70;;
15254;SDS011;7730;49.610;11.136;2022-09-02T04:39:13;4.68;;;1.70;;
15254;SDS011;7730;49.610;11.136;2022-09-02T04:41:40;4.18;;;1.85;;
15254;SDS011;7730;49.610;11.136;2022-09-02T04:44:07;2.78;;;1.60;;
15254;SDS011;7730;49.610;11.136;2022-09-02T04:46:34;3.97;;;1.80;;
15254;SDS011;7730;49.610;11.136;2022-09-02T04:49:03;2.65;;;1.65;;
15254;SDS011;7730;49.610;11.136;2022-09-02T04:51:30;4.18;;;1.80;;
15254;SDS011;7730;49.610;11.136;2022-09-02T04:53:58;4.95;;;1.80;;
15254;SDS011;7730;49.610;11.136;2022-09-02T04:56:27;7.55;;;1.80;;
15254;SDS011;7730;49.610;11.136;2022-09-02T04:58:55;4.32;;;1.80;;
15254;SDS011;7730;49.610;11.136;2022-09-02T05:01:23;5.20;;;1.75;;
15254;SDS011;7730;49.610;11.136;2022-09-02T05:03:51;6.40;;;1.70;;
15254;SDS011;7730;49.610;11.136;2022-09-02T05:06:20;7.18;;;2.20;;
15254;SDS011;7730;49.610;11.136;2022-09-02T05:08:48;6.68;;;2.20;;
15254;SDS011;7730;49.610;11.136;2022-09-02T05:11:16;7.15;;;1.98;;
15254;SDS011;7730;49.610;11.136;2022-09-02T05:13:43;6.05;;;1.90;;
15254;SDS011;7730;49.610;11.136;2022-09-02T05:16:13;4.55;;;1.88;;
15254;SDS011;7730;49.610;11.136;2022-09-02T05:18:40;4.57;;;1.80;;
15254;SDS011;7730;49.610;11.136;2022-09-02T05:21:08;4.20;;;2.00;;
15254;SDS011;7730;49.610;11.136;2022-09-02T05:23:36;4.22;;;2.10;;
15254;SDS011;7730;49.610;11.136;2022-09-02T05:26:03;5.43;;;1.80;;
15254;SDS011;7730;49.610;11.136;2022-09-02T05:28:31;4.22;;;1.88;;
15254;SDS011;7730;49.610;11.136;2022-09-02T05:31:01;4.20;;;1.90;;
15254;SDS011;7730;49.610;11.136;2022-09-02T05:33:29;3.90;;;1.80;;
15254;SDS011;7730;49.610;11.136;2022-09-02T05:35:56;5.97;;;1.73;;
15254;SDS011;7730;49.610;11.136;2022-09-02T05:38:24;6.47;;;2.10;;
15254;SDS011;7730;49.610;11.136;2022-09-02T05:40:52;4.45;;;2.00;;
15254;SDS011;7730;49.610;11.136;2022-09-02T05:43:20;6.47;;;1.80;;
15254;SDS011;7730;49.610;11.136;2022-09-02T05:45:47;4.40;;;1.90;;
15254;SDS011;7730;49.610;11.136;2022-09-02T05:48:15;4.65;;;1.80;;
15254;SDS011;7730;49.610;11.136;2022-09-02T05:51:02;4.38;;;1.75;;
15254;SDS011;7730;49.610;11.136;2022-09-02T05:53:30;4.30;;;1.90;;
15254;SDS011;7730;49.610;11.136;2022-09-02T05:56:02;3.67;;;1.70;;
15254;SDS011;7730;49.610;11.136;2022-09-02T05:58:29;5.40;;;1.70;;
15254;SDS011;7730;49.610;11.136;2022-09-02T06:00:56;3.63;;;1.52;;
15254;SDS011;7730;49.610;11.136;2022-09-02T06:03:24;7.60;;;1.90;;
15254;SDS011;7730;49.610;11.136;2022-09-02T06:05:54;5.97;;;1.92;;
15254;SDS011;7730;49.610;11.136;2022-09-02T06:08:22;4.32;;;1.48;;
15254;SDS011;7730;49.610;11.136;2022-09-02T06:10:49;2.63;;;1.70;;
15254;SDS011;7730;49.610;11.136;2022-09-02T06:13:18;3.83;;;1.80;;
15254;SDS011;7730;49.610;11.136;2022-09-02T06:15:46;5.55;;;2.00;;
15254;SDS011;7730;49.610;11.136;2022-09-02T06:18:14;4.07;;;1.60;;
15254;SDS011;7730;49.610;11.136;2022-09-02T06:20:42;3.88;;;1.52;;
15254;SDS011;7730;49.610;11.136;2022-09-02T06:23:09;4.93;;;1.50;;
15254;SDS011;7730;49.610;11.136;2022-09-02T06:25:36;6.47;;;1.80;;
15254;SDS011;7730;49.610;11.136;2022-09-02T06:28:04;5.60;;;1.90;;
15254;SDS011;7730;49.610;11.136;2022-09-02T06:30:33;3.67;;;1.60;;
15254;SDS011;7730;49.610;11.136;2022-09-02T06:33:00;5.65;;;1.70;;
15254;SDS011;7730;49.610;11.136;2022-09-02T06:35:28;4.90;;;1.63;;
15254;SDS011;7730;49.610;11.136;2022-09-02T06:37:56;5.80;;;1.80;;
15254;SDS011;7730;49.610;11.136;2022-09-02T06:40:24;3.13;;;1.70;;
15254;SDS011;7730;49.610;11.136;2022-09-02T06:42:51;5.00;;;1.55;;
15254;SDS011;7730;49.610;11.136;2022-09-02T06:45:19;4.82;;;1.75;;
15254;SDS011;7730;49.610;11.136;2022-09-02T06:47:49;4.63;;;1.60;;
15254;SDS011;7730;49.610;11.136;2022-09-02T06:50:17;3.20;;;1.67;;
15254;SDS011;7730;49.610;11.136;2022-09-02T06:52:44;3.47;;;1.60;;
15254;SDS011;7730;49.610;11.136;2022-09-02T06:55:12;5.07;;;1.80;;
15254;SDS011;7730;49.610;11.136;2022-09-02T06:57:40;2.70;;;1.63;;
15254;SDS011;7730;49.610;11.136;2022-09-02T07:00:08;5.25;;;1.60;;
15254;SDS011;7730;49.610;11.136;2022-09-02T07:02:36;4.07;;;1.48;;
15254;SDS011;7730;49.610;11.136;2022-09-02T07:05:05;2.10;;;1.40;;
15254;SDS011;7730;49.610;11.136;2022-09-02T07:07:34;2.20;;;1.70;;
15254;SDS011;7730;49.610;11.136;2022-09-02T07:10:02;5.07;;;1.70;;
15254;SDS011;7730;49.610;11.136;2022-09-02T07:12:29;2.03;;;1.50;;
15254;SDS011;7730;49.610;11.136;2022-09-02T07:14:56;4.20;;;1.60;;
15254;SDS011;7730;49.610;11.136;2022-09-02T07:17:24;3.10;;;1.52;;
15254;SDS011;7730;49.610;11.136;2022-09-02T07:19:51;3.08;;;1.50;;
15254;SDS011;7730;49.610;11.136;2022-09-02T07:22:21;4.30;;;1.60;;
15254;SDS011;7730;49.610;11.136;2022-09-02T07:24:48;3.95;;;1.70;;
15254;SDS011;7730;49.610;11.136;2022-09-02T07:27:15;5.85;;;1.70;;
15254;SDS011;7730;49.610;11.136;2022-09-02T07:29:44;5.60;;;1.67;;
15254;SDS011;7730;49.610;11.136;2022-09-02T07:32:12;2.78;;;1.50;;
15254;SDS011;7730;49.610;11.136;2022-09-02T07:34:39;3.00;;;1.40;;
15254;SDS011;7730;49.610;11.136;2022-09-02T07:37:07;3.70;;;1.60;;
15254;SDS011;7730;49.610;11.136;2022-09-02T07:39:35;4.13;;;1.50;;
15254;SDS011;7730;49.610;11.136;2022-09-02T07:42:03;3.80;;;1.70;;
15254;SDS011;7730;49.610;11.136;2022-09-02T07:44:30;5.28;;;1.70;;
15254;SDS011;7730;49.610;11.136;2022-09-02T07:46:57;3.47;;;1.50;;
15254;SDS011;7730;49.610;11.136;2022-09-02T07:49:25;5.00;;;1.60;;
15254;SDS011;7730;49.610;11.136;2022-09-02T07:51:52;6.93;;;1.80;;
15254;SDS011;7730;49.610;11.136;2022-09-02T07:54:20;5.70;;;1.50;;
15254;SDS011;7730;49.610;11.136;2022-09-02T07:56:49;2.63;;;1.52;;
15254;SDS011;7730;49.610;11.136;2022-09-02T07:59:17;3.47;;;1.27;;
15254;SDS011;7730;49.610;11.136;2022-09-02T08:01:45;3.10;;;1.52;;
15254;SDS011;7730;49.610;11.136;2022-09-02T08:04:13;5.32;;;1.75;;
15254;SDS011;7730;49.610;11.136;2022-09-02T08:06:40;2.42;;;1.35;;
15254;SDS011;7730;49.610;11.136;2022-09-02T08:09:08;3.13;;;1.60;;
15254;SDS011;7730;49.610;11.136;2022-09-02T08:11:36;7.88;;;1.50;;
15254;SDS011;7730;49.610;11.136;2022-09-02T08:14:06;3.40;;;1.38;;
15254;SDS011;7730;49.610;11.136;2022-09-02T08:16:33;2.90;;;1.60;;
15254;SDS011;7730;49.610;11.136;2022-09-02T08:19:02;3.05;;;1.60;;
15254;SDS011;7730;49.610;11.136;2022-09-02T08:21:29;4.50;;;1.30;;
15254;SDS011;7730;49.610;11.136;2022-09-02T08:23:57;3.03;;;1.60;;
15254;SDS011;7730;49.610;11.136;2022-09-02T08:26:24;2.30;;;1.50;;
15254;SDS011;7730;49.610;11.136;2022-09-02T08:28:52;5.97;;;1.63;;
15254;SDS011;7730;49.610;11.136;2022-09-02T08:31:21;4.15;;;1.60;;
15254;SDS011;7730;49.610;11.136;2022-09-02T08:33:48;1.75;;;1.33;;
15254;SDS011;7730;49.610;11.136;2022-09-02T08:36:15;3.60;;;1.42;;
15254;SDS011;7730;49.610;11.136;2022-09-02T08:38:42;3.50;;;1.45;;
15254;SDS011;7730;49.610;11.136;2022-09-02T08:41:16;2.03;;;1.30;;
15254;SDS011;7730;49.610;11.136;2022-09-02T08:43:46;3.60;;;1.58;;
15254;SDS011;7730;49.610;11.136;2022-09-02T08:46:14;3.72;;;1.38;;
15254;SDS011;7730;49.610;11.136;2022-09-02T08:48:45;4.85;;;1.60;;
15254;SDS011;7730;49.610;11.136;2022-09-02T08:51:15;2.83;;;1.48;;
15254;SDS011;7730;49.610;11.136;2022-09-02T08:53:45;2.33;;;1.10;;
15254;SDS011;7730;49.610;11.136;2022-09-02T08:56:16;3.00;;;1.48;;
15254;SDS011;7730;49.610;11.136;2022-09-02T08:58:45;3.05;;;1.40;;
15254;SDS011;7730;49.610;11.136;2022-09-02T09:01:16;4.13;;;1.50;;
15254;SDS011;7730;49.610;11.136;2022-09-02T09:03:49;3.15;;;1.40;;
15254;SDS011;7730;49.610;11.136;2022-09-02T09:06:24;2.65;;;1.30;;
15254;SDS011;7730;49.610;11.136;2022-09-02T09:08:56;3.95;;;1.50;;
15254;SDS011;7730;49.610;11.136;2022-09-02T09:11:27;1.75;;;1.20;;
15254;SDS011;7730;49.610;11.136;2022-09-02T09:14:05;3.03;;;1.40;;
15254;SDS011;7730;49.610;11.136;2022-09-02T09:16:37;2.00;;;1.40;;
15254;SDS011;7730;49.610;11.136;2022-09-02T09:19:09;4.50;;;1.30;;
15254;SDS011;7730;49.610;11.136;2022-09-02T09:21:37;4.47;;;1.40;;
15254;SDS011;7730;49.610;11.136;2022-09-02T09:24:16;3.13;;;1.38;;
15254;SDS011;7730;49.610;11.136;2022-09-02T09:26:44;2.42;;;1.40;;
15254;SDS011;7730;49.610;11.136;2022-09-02T09:29:12;5.50;;;1.73;;
15254;SDS011;7730;49.610;11.136;2022-09-02T09:31:39;2.67;;;1.30;;
15254;SDS011;7730;49.610;11.136;2022-09-02T09:34:10;3.03;;;1.38;;
15254;SDS011;7730;49.610;11.136;2022-09-02T09:36:48;1.27;;;1.17;;
15254;SDS011;7730;49.610;11.136;2022-09-02T09:39:16;2.13;;;1.35;;
15254;SDS011;7730;49.610;11.136;2022-09-02T09:41:43;1.90;;;1.40;;
15254;SDS011;7730;49.610;11.136;2022-09-02T09:44:33;3.80;;;1.50;;
15254;SDS011;7730;49.610;11.136;2022-09-02T09:47:08;2.88;;;1.30;;
15254;SDS011;7730;49.610;11.136;2022-09-02T09:50:14;3.30;;;1.23;;
15254;SDS011;7730;49.610;11.136;2022-09-02T09:53:28;4.63;;;1.70;;
15254;SDS011;7730;49.610;11.136;2022-09-02T09:56:35;1.85;;;1.10;;
15254;SDS011;7730;49.610;11.136;2022-09-02T09:59:43;2.92;;;1.35;;
15254;SDS011;7730;49.610;11.136;2022-09-02T10:02:29;2.10;;;1.02;;
15254;SDS011;7730;49.610;11.136;2022-09-02T10:05:22;4.40;;;1.55;;
15254;SDS011;7730;49.610;11.136;2022-09-02T10:08:18;2.25;;;1.27;;
15254;SDS011;7730;49.610;11.136;2022-09-02T10:11:21;3.65;;;1.38;;
15254;SDS011;7730;49.610;11.136;2022-09-02T10:13:57;2.13;;;1.27;;
15254;SDS011;7730;49.610;11.136;2022-09-02T10:16:47;4.30;;;1.33;;
15254;SDS011;7730;49.610;11.136;2022-09-02T10:19:25;3.88;;;1.48;;
15254;SDS011;7730;49.610;11.136;2022-09-02T10:22:25;2.17;;;1.42;;
15254;SDS011;7730;49.610;11.136;2022-09-02T10:25:23;2.90;;;1.40;;
15254;SDS011;7730;49.610;11.136;2022-09-02T10:27:53;3.08;;;1.30;;
15254;SDS011;7730;49.610;11.136;2022-09-02T10:30:25;3.85;;;1.50;;
15254;SDS011;7730;49.610;11.136;2022-09-02T10:32:59;2.78;;;1.30;;
15254;SDS011;7730;49.610;11.136;2022-09-02T10:35:33;3.20;;;1.40;;
15254;SDS011;7730;49.610;11.136;2022-09-02T10:38:09;2.00;;;1.25;;
15254;SDS011;7730;49.610;11.136;2022-09-02T10:40:38;2.00;;;1.30;;
15254;SDS011;7730;49.610;11.136;2022-09-02T10:43:08;2.33;;;1.20;;
15254;SDS011;7730;49.610;11.136;2022-09-02T10:45:37;2.85;;;1.30;;
15254;SDS011;7730;49.610;11.136;2022-09-02T10:48:22;2.15;;;1.25;;
15254;SDS011;7730;49.610;11.136;2022-09-02T10:50:53;3.28;;;1.35;;
15254;SDS011;7730;49.610;11.136;2022-09-02T10:53:28;1.75;;;1.20;;
15254;SDS011;7730;49.610;11.136;2022-09-02T10:55:59;2.97;;;1.13;;
15254;SDS011;7730;49.610;11.136;2022-09-02T10:58:31;1.52;;;1.33;;
15254;SDS011;7730;49.610;11.136;2022-09-02T11:00:59;2.25;;;1.20;;
15254;SDS011;7730;49.610;11.136;2022-09-02T11:03:28;5.85;;;1.50;;
15254;SDS011;7730;49.610;11.136;2022-09-02T11:05:57;2.67;;;1.00;;
15254;SDS011;7730;49.610;11.136;2022-09-02T11:08:30;6.03;;;1.20;;
15254;SDS011;7730;49.610;11.136;2022-09-02T11:11:00;5.45;;;1.40;;
15254;SDS011;7730;49.610;11.136;2022-09-02T11:13:32;1.77;;;1.20;;
15254;SDS011;7730;49.610;11.136;2022-09-02T11:16:01;4.47;;;1.30;;
15254;SDS011;7730;49.610;11.136;2022-09-02T11:18:31;3.42;;;1.40;;
15254;SDS011;7730;49.610;11.136;2022-09-02T11:20:59;9.98;;;1.98;;
15254;SDS011;7730;49.610;11.136;2022-09-02T11:23:33;6.80;;;1.58;;
15254;SDS011;7730;49.610;11.136;2022-09-02T11:26:02;8.10;;;1.63;;
15254;SDS011;7730;49.610;11.136;2022-09-02T11:28:32;4.40;;;1.38;;
15254;SDS011;7730;49.610;11.136;2022-09-02T11:31:03;2.35;;;1.10;;
15254;SDS011;7730;49.610;11.136;2022-09-02T11:33:33;4.43;;;1.25;;
15254;SDS011;7730;49.610;11.136;2022-09-02T11:36:03;2.50;;;1.25;;
15254;SDS011;7730;49.610;11.136;2022-09-02T11:38:33;3.40;;;1.27;;
15254;SDS011;7730;49.610;11.136;2022-09-02T11:43:51;2.88;;;1.30;;
15254;SDS011;7730;49.610;11.136;2022-09-02T11:46:26;3.78;;;1.30;;
15254;SDS011;7730;49.610;11.136;2022-09-02T11:49:13;3.00;;;1.05;;
15254;SDS011;7730;49.610;11.136;2022-09-02T11:51:55;4.78;;;1.52;;
15254;SDS011;7730;49.610;11.136;2022-09-02T11:54:26;3.67;;;1.17;;
15254;SDS011;7730;49.610;11.136;2022-09-02T11:56:56;2.60;;;1.10;;
15254;SDS011;7730;49.610;11.136;2022-09-02T12:02:13;4.60;;;1.40;;
15254;SDS011;7730;49.610;11.136;2022-09-02T12:05:00;2.00;;;1.10;;
15254;SDS011;7730;49.610;11.136;2022-09-02T12:07:47;1.20;;;1.00;;
15254;SDS011;7730;49.610;11.136;2022-09-02T12:13:04;1.23;;;1.00;;
15254;SDS011;7730;49.610;11.136;2022-09-02T12:15:31;3.03;;;1.20;;
15254;SDS011;7730;49.610;11.136;2022-09-02T12:18:10;3.35;;;1.23;;
15254;SDS011;7730;49.610;11.136;2022-09-02T12:26:18;2.85;;;1.20;;
15254;SDS011;7730;49.610;11.136;2022-09-02T12:28:47;1.38;;;1.10;;
15254;SDS011;7730;49.610;11.136;2022-09-02T12:31:15;2.28;;;1.13;;
15254;SDS011;7730;49.610;11.136;2022-09-02T12:33:45;1.85;;;1.00;;
15254;SDS011;7730;49.610;11.136;2022-09-02T12:41:43;3.92;;;1.40;;
15254;SDS011;7730;49.610;11.136;2022-09-02T12:44:22;2.08;;;1.30;;
15254;SDS011;7730;49.610;11.136;2022-09-02T12:46:56;4.47;;;1.38;;
15254;SDS011;7730;49.610;11.136;2022-09-02T12:49:27;3.55;;;1.02;;
15254;SDS011;7730;49.610;11.136;2022-09-02T12:52:08;2.60;;;1.25;;
15254;SDS011;7730;49.610;11.136;2022-09-02T12:54:42;2.35;;;0.98;;
15254;SDS011;7730;49.610;11.136;2022-09-02T12:57:11;1.20;;;1.10;;
15254;SDS011;7730;49.610;11.136;2022-09-02T12:59:42;2.08;;;1.15;;
15254;SDS011;7730;49.610;11.136;2022-09-02T13:02:18;2.90;;;1.10;;
15254;SDS011;7730;49.610;11.136;2022-09-02T13:04:52;2.53;;;1.08;;
15254;SDS011;7730;49.610;11.136;2022-09-02T13:07:35;3.20;;;1.30;;
15254;SDS011;7730;49.610;11.136;2022-09-02T13:10:17;2.35;;;1.10;;
15254;SDS011;7730;49.610;11.136;2022-09-02T13:13:02;1.88;;;1.25;;
15254;SDS011;7730;49.610;11.136;2022-09-02T13:15:35;3.88;;;1.30;;
15254;SDS011;7730;49.610;11.136;2022-09-02T13:18:35;1.30;;;1.20;;
15254;SDS011;7730;49.610;11.136;2022-09-02T13:21:10;4.22;;;1.65;;
15254;SDS011;7730;49.610;11.136;2022-09-02T13:26:40;1.58;;;0.90;;
15254;SDS011;7730;49.610;11.136;2022-09-02T13:32:01;3.67;;;1.23;;
15254;SDS011;7730;49.610;11.136;2022-09-02T13:34:39;4.88;;;1.30;;
15254;SDS011;7730;49.610;11.136;2022-09-02T13:37:09;1.10;;;0.90;;
15254;SDS011;7730;49.610;11.136;2022-09-02T13:39:52;1.60;;;1.20;;
15254;SDS011;7730;49.610;11.136;2022-09-02T13:42:21;3.08;;;1.30;;
15254;SDS011;7730;49.610;11.136;2022-09-02T13:44:48;2.47;;;1.17;;
15254;SDS011;7730;49.610;11.136;2022-09-02T13:47:17;2.30;;;1.00;;
15254;SDS011;7730;49.610;11.136;2022-09-02T13:49:45;1.30;;;1.00;;
15254;SDS011;7730;49.610;11.136;2022-09-02T13:52:13;1.15;;;1.00;;
15254;SDS011;7730;49.610;11.136;2022-09-02T13:54:42;2.95;;;1.20;;
15254;SDS011;7730;49.610;11.136;2022-09-02T13:57:10;4.65;;;1.30;;
15254;SDS011;7730;49.610;11.136;2022-09-02T13:59:39;3.72;;;1.10;;
15254;SDS011;7730;49.610;11.136;2022-09-02T14:02:18;1.17;;;0.93;;
15254;SDS011;7730;49.610;11.136;2022-09-02T14:04:45;3.90;;;1.27;;
15254;SDS011;7730;49.610;11.136;2022-09-02T14:07:14;2.65;;;1.13;;
15254;SDS011;7730;49.610;11.136;2022-09-02T14:09:43;1.38;;;1.10;;
15254;SDS011;7730;49.610;11.136;2022-09-02T14:12:11;1.50;;;0.98;;
15254;SDS011;7730;49.610;11.136;2022-09-02T14:14:38;1.10;;;1.00;;
15254;SDS011;7730;49.610;11.136;2022-09-02T14:17:17;3.88;;;1.20;;
15254;SDS011;7730;49.610;11.136;2022-09-02T14:19:45;3.35;;;0.95;;
15254;SDS011;7730;49.610;11.136;2022-09-02T14:22:21;1.95;;;1.05;;
15254;SDS011;7730;49.610;11.136;2022-09-02T14:24:48;2.53;;;1.05;;
15254;SDS011;7730;49.610;11.136;2022-09-02T14:27:16;4.10;;;1.40;;
15254;SDS011;7730;49.610;11.136;2022-09-02T14:29:44;3.00;;;1.20;;
15254;SDS011;7730;49.610;11.136;2022-09-02T14:32:12;3.00;;;1.20;;
15254;SDS011;7730;49.610;11.136;2022-09-02T14:34:41;3.03;;;1.10;;
15254;SDS011;7730;49.610;11.136;2022-09-02T14:37:19;4.43;;;1.13;;
15254;SDS011;7730;49.610;11.136;2022-09-02T14:39:50;3.47;;;1.20;;
15254;SDS011;7730;49.610;11.136;2022-09-02T14:42:17;3.00;;;1.10;;
15254;SDS011;7730;49.610;11.136;2022-09-02T14:44:45;2.55;;;1.23;;
15254;SDS011;7730;49.610;11.136;2022-09-02T14:47:13;3.13;;;1.20;;
15254;SDS011;7730;49.610;11.136;2022-09-02T14:49:45;5.30;;;1.17;;
15254;SDS011;7730;49.610;11.136;2022-09-02T14:52:15;3.97;;;1.10;;
15254;SDS011;7730;49.610;11.136;2022-09-02T14:54:44;2.42;;;1.27;;
15254;SDS011;7730;49.610;11.136;2022-09-02T14:57:19;2.25;;;1.15;;
15254;SDS011;7730;49.610;11.136;2022-09-02T14:59:46;1.67;;;1.17;;
15254;SDS011;7730;49.610;11.136;2022-09-02T15:02:23;1.17;;;0.90;;
15254;SDS011;7730;49.610;11.136;2022-09-02T15:04:51;2.50;;;1.13;;
15254;SDS011;7730;49.610;11.136;2022-09-02T15:07:18;3.53;;;1.20;;
15254;SDS011;7730;49.610;11.136;2022-09-02T15:09:45;2.63;;;1.23;;
15254;SDS011;7730;49.610;11.136;2022-09-02T15:12:15;4.35;;;1.20;;
15254;SDS011;7730;49.610;11.136;2022-09-02T15:14:43;2.35;;;1.00;;
15254;SDS011;7730;49.610;11.136;2022-09-02T15:17:12;4.13;;;1.00;;
15254;SDS011;7730;49.610;11.136;2022-09-02T15:19:39;1.88;;;1.27;;
15254;SDS011;7730;49.610;11.136;2022-09-02T15:22:07;1.67;;;1.15;;
15254;SDS011;7730;49.610;11.136;2022-09-02T15:24:35;1.45;;;1.30;;
15254;SDS011;7730;49.610;11.136;2022-09-02T15:27:02;1.33;;;1.08;;
15254;SDS011;7730;49.610;11.136;2022-09-02T15:29:29;3.03;;;1.10;;
15254;SDS011;7730;49.610;11.136;2022-09-02T15:31:56;4.38;;;1.10;;